createdAt,value
2018-07-22T00:01:52.417Z,23.82
2018-07-22T00:04:21.529Z,23.85
2018-07-22T00:06:50.616Z,23.86
2018-07-22T00:09:19.743Z,23.88
2018-07-22T00:11:48.824Z,23.88
2018-07-22T00:14:17.944Z,23.86
2018-07-22T00:16:47.061Z,23.86
2018-07-22T00:19:16.188Z,23.83
2018-07-22T00:21:45.268Z,23.88
2018-07-22T00:24:14.393Z,23.85
2018-07-22T00:26:43.504Z,23.87
2018-07-22T00:29:13.626Z,23.85
2018-07-22T00:31:42.967Z,23.79
2018-07-22T00:34:12.088Z,23.77
2018-07-22T00:36:41.189Z,23.66
2018-07-22T00:39:11.393Z,23.70
2018-07-22T00:41:40.792Z,23.65
2018-07-22T00:44:09.915Z,23.61
2018-07-22T00:46:38.988Z,23.55
2018-07-22T00:49:08.096Z,23.54
2018-07-22T00:51:37.172Z,23.44
2018-07-22T00:54:06.504Z,23.31
2018-07-22T00:56:35.924Z,23.36
2018-07-22T00:59:05.096Z,23.30
2018-07-22T01:01:34.275Z,23.35
2018-07-22T01:04:03.616Z,23.37
2018-07-22T01:06:32.887Z,23.40
2018-07-22T01:09:02.121Z,23.46
2018-07-22T01:11:31.227Z,23.44
2018-07-22T01:14:00.352Z,23.38
2018-07-22T01:16:29.439Z,23.35
2018-07-22T01:18:58.553Z,23.31
2018-07-22T01:21:27.704Z,23.25
2018-07-22T01:23:56.835Z,23.26
2018-07-22T01:26:25.963Z,23.24
2018-07-22T01:28:55.084Z,23.10
2018-07-22T01:31:24.301Z,23.03
2018-07-22T01:33:53.424Z,22.87
2018-07-22T01:36:22.509Z,22.72
2018-07-22T01:38:51.648Z,22.67
2018-07-22T01:41:20.728Z,22.71
2018-07-22T01:43:49.847Z,22.79
2018-07-22T01:46:18.935Z,22.87
2018-07-22T01:48:48.064Z,22.87
2018-07-22T01:51:17.156Z,22.90
2018-07-22T01:53:46.272Z,22.91
2018-07-22T01:56:15.356Z,22.94
2018-07-22T01:58:44.470Z,22.95
2018-07-22T02:01:13.578Z,22.89
2018-07-22T02:03:42.711Z,22.91
2018-07-22T02:06:11.788Z,22.94
2018-07-22T02:08:40.919Z,22.96
2018-07-22T02:11:10.049Z,23.01
2018-07-22T02:13:39.152Z,22.96
2018-07-22T02:16:08.288Z,22.90
2018-07-22T02:18:37.432Z,22.91
2018-07-22T02:21:06.542Z,22.89
2018-07-22T02:23:35.624Z,22.85
2018-07-22T02:26:04.768Z,22.81
2018-07-22T02:28:33.840Z,22.88
2018-07-22T02:31:02.955Z,22.92
2018-07-22T02:33:32.052Z,22.86
2018-07-22T02:36:01.213Z,22.87
2018-07-22T02:38:30.304Z,22.92
2018-07-22T02:40:59.409Z,22.94
2018-07-22T02:43:28.637Z,22.95
2018-07-22T02:45:57.810Z,22.87
2018-07-22T02:48:26.909Z,22.92
2018-07-22T02:50:56.025Z,22.87
2018-07-22T02:53:25.139Z,22.92
2018-07-22T02:55:54.296Z,22.78
2018-07-22T02:58:23.372Z,22.69
2018-07-22T03:00:52.524Z,22.70
2018-07-22T03:03:21.725Z,22.60
2018-07-22T03:05:50.816Z,22.58
2018-07-22T03:08:19.896Z,22.58
2018-07-22T03:10:49.044Z,22.61
2018-07-22T03:13:18.152Z,22.65
2018-07-22T03:15:47.263Z,22.66
2018-07-22T03:18:16.356Z,22.63
2018-07-22T03:20:45.520Z,22.60
2018-07-22T03:23:14.597Z,22.54
2018-07-22T03:25:43.741Z,22.55
2018-07-22T03:28:12.825Z,22.64
2018-07-22T03:30:41.985Z,22.58
2018-07-22T03:33:11.080Z,22.65
2018-07-22T03:35:40.196Z,22.68
2018-07-22T03:38:09.300Z,22.55
2018-07-22T03:40:38.472Z,22.54
2018-07-22T03:43:07.588Z,22.53
2018-07-22T03:45:36.730Z,22.53
2018-07-22T03:48:05.884Z,22.52
2018-07-22T03:50:34.988Z,22.51
2018-07-22T03:53:04.073Z,22.53
2018-07-22T03:55:33.199Z,22.55
2018-07-22T03:58:02.296Z,22.53
2018-07-22T04:00:31.404Z,22.52
2018-07-22T04:03:00.529Z,22.56
2018-07-22T04:05:29.663Z,22.62
2018-07-22T04:07:58.768Z,22.62
2018-07-22T04:10:27.920Z,22.63
2018-07-22T04:12:57.009Z,22.61
2018-07-22T04:15:26.199Z,22.52
2018-07-22T04:17:55.363Z,22.33
2018-07-22T04:20:24.464Z,22.32
2018-07-22T04:22:53.563Z,22.39
2018-07-22T04:25:22.711Z,22.36
2018-07-22T04:27:51.868Z,22.49
2018-07-22T04:30:20.997Z,22.50
2018-07-22T04:32:50.112Z,22.51
2018-07-22T04:35:19.252Z,22.59
2018-07-22T04:37:48.366Z,22.58
2018-07-22T04:40:17.492Z,22.57
2018-07-22T04:42:46.629Z,22.45
2018-07-22T04:45:15.729Z,22.43
2018-07-22T04:47:44.831Z,22.45
2018-07-22T04:50:13.940Z,22.43
2018-07-22T04:52:43.096Z,22.49
2018-07-22T04:55:12.172Z,22.48
2018-07-22T04:57:41.276Z,22.49
2018-07-22T05:00:10.372Z,22.56
2018-07-22T05:02:39.528Z,22.55
2018-07-22T05:05:08.614Z,22.67
2018-07-22T05:07:37.747Z,22.70
2018-07-22T05:10:06.847Z,22.83
2018-07-22T05:12:35.976Z,22.88
2018-07-22T05:15:05.273Z,22.89
2018-07-22T05:17:34.408Z,22.99
2018-07-22T05:20:03.527Z,23.02
2018-07-22T05:22:32.712Z,22.96
2018-07-22T05:25:01.857Z,22.93
2018-07-22T05:27:30.969Z,23.02
2018-07-22T05:30:00.063Z,23.02
2018-07-22T05:32:29.220Z,23.06
2018-07-22T05:34:58.340Z,23.08
2018-07-22T05:37:27.448Z,23.08
2018-07-22T05:39:56.552Z,23.16
2018-07-22T05:42:25.719Z,23.08
2018-07-22T05:44:54.857Z,23.03
2018-07-22T05:47:23.961Z,23.05
2018-07-22T05:49:53.040Z,23.12
2018-07-22T05:52:22.154Z,23.13
2018-07-22T05:54:51.300Z,23.13
2018-07-22T05:57:20.416Z,23.34
2018-07-22T05:59:49.552Z,23.48
2018-07-22T06:02:18.992Z,23.64
2018-07-22T06:04:48.193Z,23.69
2018-07-22T06:07:17.299Z,23.72
2018-07-22T06:09:46.456Z,23.61
2018-07-22T06:12:15.562Z,23.61
2018-07-22T06:14:44.661Z,23.56
2018-07-22T06:17:13.784Z,23.66
2018-07-22T06:19:42.912Z,23.82
2018-07-22T06:22:12.032Z,23.77
2018-07-22T06:24:41.120Z,23.70
2018-07-22T06:27:10.252Z,23.65
2018-07-22T06:29:39.384Z,23.68
2018-07-22T06:32:08.520Z,23.78
2018-07-22T06:34:37.604Z,23.89
2018-07-22T06:37:07.012Z,23.91
2018-07-22T06:39:36.115Z,24.15
2018-07-22T06:42:05.232Z,24.24
2018-07-22T06:44:34.325Z,24.35
2018-07-22T06:47:03.447Z,24.28
2018-07-22T06:49:32.521Z,24.16
2018-07-22T06:52:01.652Z,24.14
2018-07-22T06:54:30.744Z,24.23
2018-07-22T06:56:59.872Z,24.12
2018-07-22T06:59:28.984Z,24.13
2018-07-22T07:01:58.107Z,24.33
2018-07-22T07:04:27.224Z,24.43
2018-07-22T07:06:56.338Z,24.50
2018-07-22T07:09:26.274Z,24.48
2018-07-22T07:11:55.373Z,24.54
2018-07-22T07:14:24.604Z,24.67
2018-07-22T07:16:53.716Z,25.00
2018-07-22T07:19:22.821Z,25.18
2018-07-22T07:21:51.929Z,25.32
2018-07-22T07:24:21.048Z,24.97
2018-07-22T07:26:50.165Z,24.74
2018-07-22T07:29:19.276Z,24.89
2018-07-22T07:31:48.380Z,25.11
2018-07-22T07:34:17.550Z,25.23
2018-07-22T07:36:47.604Z,25.36
2018-07-22T07:39:16.748Z,25.45
2018-07-22T07:41:45.855Z,25.68
2018-07-22T07:44:14.961Z,25.79
2018-07-22T07:46:44.048Z,26.11
2018-07-22T07:49:13.169Z,26.29
2018-07-22T07:51:42.264Z,26.26
2018-07-22T07:54:11.380Z,26.24
2018-07-22T07:56:40.487Z,26.20
2018-07-22T07:59:09.597Z,26.20
2018-07-22T08:01:38.700Z,26.05
2018-07-22T08:04:07.849Z,25.89
2018-07-22T08:06:36.967Z,25.86
2018-07-22T08:09:07.032Z,25.89
2018-07-22T08:11:36.163Z,25.91
2018-07-22T08:14:05.280Z,26.05
2018-07-22T08:16:34.873Z,26.12
2018-07-22T08:19:04.095Z,26.03
2018-07-22T08:21:33.188Z,26.26
2018-07-22T08:24:02.697Z,26.62
2018-07-22T08:26:32.424Z,26.89
2018-07-22T08:29:34.436Z,26.77
2018-07-22T08:32:04.744Z,26.61
2018-07-22T08:34:33.868Z,26.71
2018-07-22T08:37:03.068Z,26.75
2018-07-22T08:39:32.948Z,26.91
2018-07-22T08:42:02.225Z,26.96
2018-07-22T08:44:31.343Z,27.02
2018-07-22T08:47:00.442Z,27.08
2018-07-22T08:49:29.575Z,27.10
2018-07-22T08:51:58.668Z,27.21
2018-07-22T08:54:27.788Z,27.03
2018-07-22T08:56:56.880Z,26.77
2018-07-22T08:59:25.988Z,26.66
2018-07-22T09:01:55.113Z,26.61
2018-07-22T09:04:24.252Z,26.84
2018-07-22T09:06:53.349Z,26.94
2018-07-22T09:09:22.712Z,27.12
2018-07-22T09:11:51.828Z,27.30
2018-07-22T09:14:20.928Z,27.24
2018-07-22T09:16:50.029Z,26.92
2018-07-22T09:19:19.164Z,26.82
2018-07-22T09:21:48.904Z,26.85
2018-07-22T09:24:18.051Z,27.03
2018-07-22T09:26:47.205Z,27.21
2018-07-22T09:29:16.376Z,27.23
2018-07-22T09:31:45.460Z,27.38
2018-07-22T09:34:14.593Z,27.32
2018-07-22T09:36:43.700Z,27.26
2018-07-22T09:39:12.824Z,27.47
2018-07-22T09:41:41.920Z,27.48
2018-07-22T09:44:11.028Z,27.68
2018-07-22T09:46:40.180Z,27.68
2018-07-22T09:49:09.320Z,27.60
2018-07-22T09:51:38.424Z,27.49
2018-07-22T09:54:07.547Z,27.72
2018-07-22T09:56:36.646Z,27.67
2018-07-22T09:59:05.807Z,27.88
2018-07-22T10:01:34.975Z,27.85
2018-07-22T10:04:04.129Z,27.92
2018-07-22T10:06:33.522Z,27.92
2018-07-22T10:09:02.641Z,28.07
2018-07-22T10:11:31.752Z,28.28
2018-07-22T10:14:00.867Z,28.16
2018-07-22T10:16:29.989Z,28.23
2018-07-22T10:18:59.084Z,28.20
2018-07-22T10:21:28.223Z,28.12
2018-07-22T10:23:57.351Z,28.14
2018-07-22T10:26:26.444Z,28.14
2018-07-22T10:28:55.588Z,28.14
2018-07-22T10:31:24.740Z,28.34
2018-07-22T10:33:53.880Z,28.39
2018-07-22T10:36:23.012Z,28.43
2018-07-22T10:38:52.125Z,28.49
2018-07-22T10:41:21.238Z,28.59
2018-07-22T10:43:50.329Z,28.76
2018-07-22T10:46:19.450Z,28.85
2018-07-22T10:48:48.524Z,29.03
2018-07-22T10:51:17.686Z,29.13
2018-07-22T10:53:46.884Z,29.01
2018-07-22T10:56:15.996Z,29.07
2018-07-22T10:58:45.089Z,29.32
2018-07-22T11:01:14.204Z,29.48
2018-07-22T11:03:43.337Z,29.56
2018-07-22T11:06:12.460Z,29.44
2018-07-22T11:08:41.583Z,29.31
2018-07-22T11:11:10.739Z,29.09
2018-07-22T11:13:39.869Z,28.95
2018-07-22T11:16:08.989Z,29.26
2018-07-22T11:18:38.089Z,29.31
2018-07-22T11:21:07.239Z,29.11
2018-07-22T11:23:36.288Z,29.26
2018-07-22T11:26:05.418Z,29.20
2018-07-22T11:28:34.566Z,28.90
2018-07-22T11:31:03.652Z,28.70
2018-07-22T11:33:32.743Z,28.71
2018-07-22T11:36:01.936Z,28.95
2018-07-22T11:38:31.188Z,29.22
2018-07-22T11:41:00.396Z,29.38
2018-07-22T11:43:29.771Z,29.05
2018-07-22T11:45:58.887Z,28.77
2018-07-22T11:48:27.977Z,28.83
2018-07-22T11:50:57.109Z,28.94
2018-07-22T11:53:26.197Z,29.13
2018-07-22T11:55:55.388Z,29.07
2018-07-22T11:58:24.473Z,28.63
2018-07-22T12:00:53.581Z,28.62
2018-07-22T12:03:22.708Z,28.64
2018-07-22T12:05:52.477Z,28.94
2018-07-22T12:08:21.701Z,29.20
2018-07-22T12:10:50.860Z,29.27
2018-07-22T12:13:20.045Z,29.03
2018-07-22T12:15:49.136Z,29.08
2018-07-22T12:18:18.248Z,29.29
2018-07-22T12:20:47.373Z,29.08
2018-07-22T12:23:16.600Z,29.10
2018-07-22T12:25:45.739Z,29.29
2018-07-22T12:28:14.877Z,29.07
2018-07-22T12:30:43.953Z,29.23
2018-07-22T12:33:13.037Z,29.45
2018-07-22T12:35:42.160Z,29.49
2018-07-22T12:38:11.256Z,29.47
2018-07-22T12:40:40.363Z,29.27
2018-07-22T12:43:09.440Z,29.33
2018-07-22T12:45:39.463Z,29.29
2018-07-22T12:48:08.664Z,29.05
2018-07-22T12:50:38.100Z,29.13
2018-07-22T12:53:07.416Z,29.23
2018-07-22T12:55:38.188Z,29.26
2018-07-22T12:58:07.385Z,29.47
2018-07-22T13:00:36.664Z,29.54
2018-07-22T13:03:05.808Z,29.64
2018-07-22T13:05:35.359Z,29.55
2018-07-22T13:08:05.682Z,29.44
2018-07-22T13:10:34.772Z,29.43
2018-07-22T13:13:03.922Z,29.13
2018-07-22T13:15:32.965Z,29.32
2018-07-22T13:18:02.272Z,29.66
2018-07-22T13:20:31.404Z,29.90
2018-07-22T13:23:00.524Z,29.73
2018-07-22T13:25:29.804Z,29.78
2018-07-22T13:27:58.894Z,29.95
2018-07-22T13:30:27.992Z,29.61
2018-07-22T13:32:57.817Z,29.43
2018-07-22T13:35:26.933Z,29.40
2018-07-22T13:37:56.056Z,29.53
2018-07-22T13:40:25.136Z,29.43
2018-07-22T13:42:54.264Z,29.34
2018-07-22T13:45:23.769Z,29.20
2018-07-22T13:47:52.832Z,29.24
2018-07-22T13:50:21.976Z,29.36
2018-07-22T13:52:51.101Z,29.44
2018-07-22T13:55:20.193Z,29.34
2018-07-22T13:57:49.732Z,29.28
2018-07-22T14:00:18.843Z,29.30
2018-07-22T14:02:47.977Z,29.27
2018-07-22T14:05:17.060Z,29.34
2018-07-22T14:07:46.188Z,29.44
2018-07-22T14:10:15.289Z,29.50
2018-07-22T14:12:44.396Z,29.48
2018-07-22T14:15:13.512Z,29.32
2018-07-22T14:17:42.773Z,29.12
2018-07-22T14:20:11.901Z,29.09
2018-07-22T14:22:41.132Z,29.02
2018-07-22T14:25:10.266Z,28.97
2018-07-22T14:27:39.392Z,29.04
2018-07-22T14:30:08.505Z,28.97
2018-07-22T14:32:37.604Z,29.01
2018-07-22T14:35:06.768Z,29.01
2018-07-22T14:37:35.776Z,29.12
2018-07-22T14:40:05.386Z,29.29
2018-07-22T14:42:34.541Z,29.52
2018-07-22T14:45:03.668Z,29.45
2018-07-22T14:47:32.769Z,29.32
2018-07-22T14:50:01.884Z,29.30
2018-07-22T14:52:31.592Z,29.18
2018-07-22T14:55:00.724Z,29.20
2018-07-22T14:57:29.857Z,29.42
2018-07-22T14:59:58.956Z,29.50
2018-07-22T15:02:28.081Z,29.32
2018-07-22T15:04:57.199Z,29.18
2018-07-22T15:07:26.296Z,29.15
2018-07-22T15:09:55.476Z,29.10
2018-07-22T15:12:24.563Z,29.07
2018-07-22T15:14:53.644Z,29.04
2018-07-22T15:17:22.795Z,29.19
2018-07-22T15:19:51.912Z,29.30
2018-07-22T15:22:21.044Z,29.35
2018-07-22T15:24:50.132Z,29.39
2018-07-22T15:27:19.224Z,29.43
2018-07-22T15:29:48.482Z,29.51
2018-07-22T15:32:17.584Z,29.59
2018-07-22T15:34:46.708Z,29.43
2018-07-22T15:37:15.792Z,29.24
2018-07-22T15:39:45.080Z,29.02
2018-07-22T15:42:14.165Z,28.90
2018-07-22T15:44:43.305Z,28.91
2018-07-22T15:47:12.378Z,29.10
2018-07-22T15:49:41.532Z,29.23
2018-07-22T15:52:10.573Z,29.09
2018-07-22T15:54:39.675Z,29.05
2018-07-22T15:57:08.776Z,29.00
2018-07-22T15:59:37.888Z,29.17
2018-07-22T16:02:07.019Z,29.14
2018-07-22T16:04:36.146Z,28.92
2018-07-22T16:07:05.474Z,28.75
2018-07-22T16:09:34.540Z,28.78
2018-07-22T16:12:03.641Z,28.75
2018-07-22T16:14:32.736Z,28.75
2018-07-22T16:17:01.844Z,28.90
2018-07-22T16:19:31.687Z,29.00
2018-07-22T16:22:00.773Z,28.94
2018-07-22T16:24:29.931Z,29.03
2018-07-22T16:26:58.996Z,29.07
2018-07-22T16:29:28.148Z,29.03
2018-07-22T16:31:57.223Z,29.02
2018-07-22T16:34:26.365Z,29.04
2018-07-22T16:36:55.469Z,29.04
2018-07-22T16:39:24.564Z,28.91
2018-07-22T16:41:53.682Z,28.81
2018-07-22T16:44:22.785Z,28.78
2018-07-22T16:46:51.919Z,28.94
2018-07-22T16:49:21.008Z,28.87
2018-07-22T16:51:50.088Z,28.90
2018-07-22T16:54:19.215Z,28.90
2018-07-22T16:56:48.364Z,28.84
2018-07-22T16:59:17.468Z,28.65
2018-07-22T17:01:46.592Z,28.52
2018-07-22T17:04:15.724Z,28.51
2018-07-22T17:06:44.800Z,28.61
2018-07-22T17:09:14.952Z,28.64
2018-07-22T17:11:44.048Z,28.51
2018-07-22T17:14:13.166Z,28.50
2018-07-22T17:16:42.256Z,28.42
2018-07-22T17:19:11.357Z,28.44
2018-07-22T17:21:40.452Z,28.43
2018-07-22T17:24:09.543Z,28.40
2018-07-22T17:26:38.629Z,28.37
2018-07-22T17:29:07.752Z,28.27
2018-07-22T17:31:36.852Z,28.33
2018-07-22T17:34:06.968Z,28.38
2018-07-22T17:36:36.047Z,28.42
2018-07-22T17:39:08.068Z,28.31
2018-07-22T17:41:37.480Z,28.17
2018-07-22T17:44:07.133Z,28.23
2018-07-22T17:46:36.243Z,28.22
2018-07-22T17:49:05.391Z,28.18
2018-07-22T17:51:34.599Z,28.22
2018-07-22T17:54:03.751Z,28.02
2018-07-22T17:56:32.824Z,28.02
2018-07-22T17:59:01.916Z,27.94
2018-07-22T18:01:31.072Z,27.91
2018-07-22T18:04:00.197Z,27.89
2018-07-22T18:06:29.312Z,27.73
2018-07-22T18:08:59.433Z,27.70
2018-07-22T18:11:28.524Z,27.67
2018-07-22T18:13:57.649Z,27.72
2018-07-22T18:16:26.787Z,27.63
2018-07-22T18:18:55.860Z,27.54
2018-07-22T18:21:24.984Z,27.61
2018-07-22T18:23:55.179Z,27.55
2018-07-22T18:26:24.275Z,27.46
2018-07-22T18:28:53.371Z,27.39
2018-07-22T18:31:22.460Z,27.39
2018-07-22T18:33:51.572Z,27.46
2018-07-22T18:36:20.704Z,27.42
2018-07-22T18:38:49.783Z,27.38
2018-07-22T18:41:18.955Z,27.35
2018-07-22T18:43:48.043Z,27.33
2018-07-22T18:46:17.172Z,27.32
2018-07-22T18:48:46.356Z,27.29
2018-07-22T18:51:15.424Z,27.20
2018-07-22T18:53:44.516Z,27.21
2018-07-22T18:56:13.823Z,27.13
2018-07-22T18:58:42.976Z,27.11
2018-07-22T19:01:12.068Z,27.09
2018-07-22T19:03:41.156Z,27.04
2018-07-22T19:06:10.291Z,26.94
2018-07-22T19:08:40.383Z,26.94
2018-07-22T19:11:09.488Z,26.84
2018-07-22T19:13:38.563Z,26.63
2018-07-22T19:16:07.668Z,26.47
2018-07-22T19:18:37.188Z,26.44
2018-07-22T19:21:06.410Z,26.44
2018-07-22T19:23:35.580Z,26.38
2018-07-22T19:26:04.695Z,26.19
2018-07-22T19:28:33.760Z,25.89
2018-07-22T19:31:02.892Z,25.76
2018-07-22T19:33:31.964Z,25.61
2018-07-22T19:36:01.074Z,25.59
2018-07-22T19:38:30.140Z,25.67
2018-07-22T19:40:59.275Z,25.77
2018-07-22T19:43:28.368Z,25.80
2018-07-22T19:45:57.512Z,25.69
2018-07-22T19:48:26.604Z,25.57
2018-07-22T19:50:55.721Z,25.59
2018-07-22T19:53:24.816Z,25.51
2018-07-22T19:55:53.928Z,25.56
2018-07-22T19:58:22.995Z,25.55
2018-07-22T20:00:52.129Z,25.50
2018-07-22T20:03:21.237Z,25.44
2018-07-22T20:05:50.349Z,25.43
2018-07-22T20:08:19.437Z,25.42
2018-07-22T20:10:48.556Z,25.44
2018-07-22T20:13:17.664Z,25.44
2018-07-22T20:15:46.766Z,25.47
2018-07-22T20:18:16.062Z,25.39
2018-07-22T20:20:45.144Z,25.28
2018-07-22T20:23:14.228Z,25.14
2018-07-22T20:25:43.416Z,25.15
2018-07-22T20:28:14.180Z,25.05
2018-07-22T20:30:43.296Z,24.96
2018-07-22T20:33:12.424Z,24.96
2018-07-22T20:35:41.524Z,24.86
2018-07-22T20:38:10.648Z,24.82
2018-07-22T20:40:39.880Z,24.75
2018-07-22T20:43:08.989Z,24.71
2018-07-22T20:45:38.092Z,24.63
2018-07-22T20:48:07.217Z,24.39
2018-07-22T20:50:36.289Z,24.23
2018-07-22T20:53:05.488Z,24.07
2018-07-22T20:55:34.596Z,24.02
2018-07-22T20:58:03.699Z,24.05
2018-07-22T21:00:32.816Z,24.07
2018-07-22T21:03:01.949Z,24.11
2018-07-22T21:05:31.044Z,24.18
2018-07-22T21:08:00.200Z,24.20
2018-07-22T21:10:29.227Z,24.24
2018-07-22T21:13:10.000Z,24.22
2018-07-22T21:15:39.118Z,24.20
2018-07-22T21:18:08.244Z,24.20
2018-07-22T21:20:37.348Z,24.17
2018-07-22T21:23:06.675Z,24.12
2018-07-22T21:25:35.775Z,24.12
2018-07-22T21:28:04.928Z,24.07
2018-07-22T21:30:34.503Z,23.88
2018-07-22T21:33:03.662Z,23.84
2018-07-22T21:35:32.856Z,23.63
2018-07-22T21:38:01.946Z,23.62
2018-07-22T21:40:31.025Z,23.60
2018-07-22T21:43:00.181Z,23.61
2018-07-22T21:45:29.252Z,23.66
2018-07-22T21:47:58.375Z,23.73
2018-07-22T21:50:27.477Z,23.73
2018-07-22T21:52:56.580Z,23.78
2018-07-22T21:55:25.666Z,23.75
2018-07-22T21:57:54.896Z,23.76
2018-07-22T22:00:32.542Z,23.72
2018-07-22T22:03:02.832Z,23.60
2018-07-22T22:05:31.935Z,23.51
2018-07-22T22:08:01.210Z,23.29
2018-07-22T22:10:30.301Z,23.15
2018-07-22T22:12:59.396Z,23.05
2018-07-22T22:15:30.464Z,23.02
2018-07-22T22:18:00.902Z,22.96
2018-07-22T22:20:30.361Z,22.93
2018-07-22T22:22:59.507Z,22.86
2018-07-22T22:25:28.720Z,22.83
2018-07-22T22:27:57.824Z,22.87
2018-07-22T22:30:26.897Z,22.92
2018-07-22T22:32:56.004Z,22.95
2018-07-22T22:35:25.116Z,22.92
2018-07-22T22:37:54.208Z,22.86
2018-07-22T22:40:23.331Z,22.70
2018-07-22T22:42:52.424Z,22.55
2018-07-22T22:45:21.542Z,22.48
2018-07-22T22:47:50.637Z,22.44
2018-07-22T22:50:19.720Z,22.51
2018-07-22T22:52:48.855Z,22.50
2018-07-22T22:55:17.937Z,22.52
2018-07-22T22:57:58.313Z,22.48
2018-07-22T23:00:27.476Z,22.47
2018-07-22T23:02:56.658Z,22.44
2018-07-22T23:05:25.760Z,22.39
2018-07-22T23:07:54.879Z,22.29
2018-07-22T23:10:23.997Z,22.23
2018-07-22T23:12:53.144Z,22.10
2018-07-22T23:15:22.225Z,21.89
2018-07-22T23:17:51.376Z,21.76
2018-07-22T23:20:20.444Z,21.66
2018-07-22T23:22:49.531Z,21.75
2018-07-22T23:25:18.603Z,21.85
2018-07-22T23:27:47.700Z,21.87
2018-07-22T23:30:16.791Z,21.85
2018-07-22T23:32:45.867Z,21.87
2018-07-22T23:35:14.967Z,21.91
2018-07-22T23:37:44.076Z,21.89
2018-07-22T23:40:13.178Z,21.84
2018-07-22T23:42:42.299Z,21.82
2018-07-22T23:45:11.415Z,21.73
2018-07-22T23:47:40.557Z,21.62
2018-07-22T23:50:09.638Z,21.56
2018-07-22T23:52:38.737Z,21.50
2018-07-22T23:55:07.861Z,21.44
2018-07-22T23:57:37.112Z,21.39
